Terminal Aerodrome Forecast
Issued by NWS

Home | Current Version | Previous Version | Text Only | Print | Product List | Glossary On
Versions: 1 2 3 4 5 6 7 8 9 10 11 12 13 14 15 16 17 18 19 20 21
000
FTUS43 KIND 211125
TAFLAF
TAF
KLAF 211125Z 2112/2212 21005KT P6SM OVC110
     FM211300 21005KT P6SM VCSH OVC090
     FM211800 22004KT P6SM OVC050
     FM220400 VRB03KT P6SM BKN030
     FM220500 20004KT 4SM BR SCT035
     FM221000 22004KT 2SM BR SCT060
      AMD LTD TO CLD VIS AND WIND TIL 211400=

USA.gov is the U.S. government's official web portal to all federal, state and local government web resources and services.